Time;durP1;ratioP1;P1;durP2;ratioP2;P2;SDS_P1;SDS_P2;PMS_P1;PMS_P2;Temp;Humidity;BMP_temperature;BMP_pressure;BME280_temperature;BME280_humidity;BME280_pressure;Samples;Min_cycle;Max_cycle;Signal;HPM_P1;HPM_P2
2024/04/09 00:00:32;;;;;;;14.27;5.97;;;15.90;99.90;;;;;;5526349;25;19993;-80
2024/04/09 00:02:57;;;;;;;14.32;5.93;;;15.90;99.90;;;;;;5524966;26;19993;-79
2024/04/09 00:05:26;;;;;;;10.07;6.05;;;15.90;99.90;;;;;;5526481;26;20379;-79
2024/04/09 00:07:51;;;;;;;12.43;6.03;;;15.90;99.90;;;;;;5526966;25;19997;-79
2024/04/09 00:10:19;;;;;;;14.25;6.38;;;15.90;99.90;;;;;;5526103;26;20008;-79
2024/04/09 00:12:46;;;;;;;13.65;6.45;;;15.90;99.90;;;;;;5526884;25;19993;-79
2024/04/09 00:15:12;;;;;;;15.80;7.15;;;15.90;99.90;;;;;;5524380;26;19997;-78
2024/04/09 00:18:09;;;;;;;15.77;6.57;;;15.90;99.90;;;;;;5526621;26;20087;-80
2024/04/09 00:20:35;;;;;;;12.52;6.30;;;15.90;99.90;;;;;;5526481;25;19994;-80
2024/04/09 00:23:00;;;;;;;13.02;5.75;;;15.90;99.90;;;;;;5526071;25;20046;-80
2024/04/09 00:25:26;;;;;;;14.52;7.30;;;15.90;99.90;;;;;;5526167;26;20304;-80
2024/04/09 00:27:54;;;;;;;12.68;6.20;;;15.90;99.90;;;;;;5524716;26;20005;-80
2024/04/09 00:30:21;;;;;;;12.48;6.85;;;16.00;99.90;;;;;;5525682;25;20013;-80
2024/04/09 00:32:51;;;;;;;11.57;6.93;;;15.90;99.90;;;;;;5526081;25;20454;-78
2024/04/09 00:35:26;;;;;;;11.20;6.85;;;15.90;99.90;;;;;;5525501;25;19997;-81
2024/04/09 00:37:51;;;;;;;12.02;7.32;;;15.90;99.90;;;;;;5524689;25;20021;-81
2024/04/09 00:40:21;;;;;;;9.20;6.43;;;15.90;99.90;;;;;;5523607;26;19997;-79
2024/04/09 00:42:49;;;;;;;15.68;6.30;;;15.90;99.90;;;;;;5526048;25;20467;-81
2024/04/09 00:45:17;;;;;;;15.63;7.75;;;15.80;99.90;;;;;;5523765;26;19997;-81
2024/04/09 00:47:46;;;;;;;15.32;7.22;;;15.80;99.90;;;;;;5525966;25;20078;-81
2024/04/09 00:50:12;;;;;;;14.93;7.30;;;15.70;99.90;;;;;;5525640;25;20005;-80
2024/04/09 00:52:39;;;;;;;15.38;6.20;;;15.70;99.90;;;;;;5525930;25;20323;-81
2024/04/09 00:55:08;;;;;;;14.93;6.88;;;15.60;99.90;;;;;;5525287;25;19997;-83
2024/04/09 00:57:35;;;;;;;13.98;6.80;;;15.60;99.90;;;;;;5526754;25;20043;-78
2024/04/09 01:00:05;;;;;;;13.45;7.20;;;15.60;99.90;;;;;;5524940;25;20034;-80
2024/04/09 01:02:31;;;;;;;11.95;7.07;;;15.60;99.90;;;;;;5525841;25;20004;-78
2024/04/09 01:04:57;;;;;;;12.13;7.03;;;15.60;99.90;;;;;;5525065;26;20008;-79
2024/04/09 01:07:23;;;;;;;11.93;7.18;;;15.60;99.90;;;;;;5525791;25;20026;-79
2024/04/09 01:09:49;;;;;;;11.65;6.20;;;15.60;99.90;;;;;;5524845;25;20074;-79
2024/04/09 01:12:15;;;;;;;9.10;5.72;;;15.60;99.90;;;;;;5525715;26;19997;-78
2024/04/09 01:14:40;;;;;;;10.43;6.07;;;15.60;99.90;;;;;;5524782;25;20005;-79
2024/04/09 01:17:06;;;;;;;10.75;6.25;;;15.50;99.90;;;;;;5526327;26;20384;-79
2024/04/09 01:19:32;;;;;;;11.95;6.75;;;15.50;99.90;;;;;;5524836;26;19997;-79
2024/04/09 01:21:57;;;;;;;13.50;6.88;;;15.50;99.90;;;;;;5525568;26;20042;-79
2024/04/09 01:24:24;;;;;;;10.63;6.22;;;15.50;99.90;;;;;;5524778;26;20004;-81
2024/04/09 01:26:51;;;;;;;10.65;6.78;;;15.50;99.90;;;;;;5525508;25;20024;-80
2024/04/09 01:29:17;;;;;;;11.80;6.40;;;15.50;99.90;;;;;;5524510;25;20026;-81
2024/04/09 01:31:43;;;;;;;12.40;7.05;;;15.60;99.90;;;;;;5526001;26;20335;-80
2024/04/09 01:34:12;;;;;;;15.05;6.82;;;15.50;99.90;;;;;;5524302;25;20005;-81
2024/04/09 01:36:38;;;;;;;12.18;6.60;;;15.50;99.90;;;;;;5525826;25;20034;-81
2024/04/09 01:39:08;;;;;;;14.38;6.55;;;15.50;99.90;;;;;;5524148;25;20003;-81
2024/04/09 01:41:39;;;;;;;12.48;6.72;;;15.40;99.90;;;;;;5525578;25;20514;-80
2024/04/09 01:44:05;;;;;;;;;;;15.40;99.90;;;;;;5525330;25;20435;-81
2024/04/09 01:46:30;;;;;;;10.23;6.03;;;15.30;99.90;;;;;;5523453;26;19934;-80
2024/04/09 01:48:56;;;;;;;10.73;5.85;;;15.30;99.90;;;;;;5523450;26;20384;-81
2024/04/09 01:51:21;;;;;;;9.35;5.30;;;15.20;99.90;;;;;;5524798;26;20442;-80
2024/04/09 01:53:48;;;;;;;9.63;4.55;;;15.30;99.90;;;;;;5525901;26;19989;-80
2024/04/09 01:56:18;;;;;;;9.55;4.53;;;15.20;99.90;;;;;;5524114;25;20064;-81
2024/04/09 01:58:44;;;;;;;8.90;4.40;;;15.20;99.90;;;;;;5525116;25;19989;-82
2024/04/09 02:01:10;;;;;;;10.18;4.45;;;15.20;99.90;;;;;;5524115;25;19993;-82
2024/04/09 02:03:38;;;;;;;10.45;3.90;;;15.20;99.90;;;;;;5525341;25;19997;-82
2024/04/09 02:06:04;;;;;;;7.05;3.17;;;15.20;99.90;;;;;;5524138;25;20066;-81
2024/04/09 02:08:30;;;;;;;7.50;2.70;;;15.10;99.90;;;;;;5525740;25;19997;-81
2024/04/09 02:10:56;;;;;;;6.78;2.83;;;15.10;99.90;;;;;;5523640;26;20009;-82
2024/04/09 02:13:24;;;;;;;6.75;2.25;;;15.10;99.90;;;;;;5524218;25;20006;-82
2024/04/09 02:15:50;;;;;;;6.85;2.08;;;15.10;99.90;;;;;;5523665;25;20025;-81
2024/04/09 02:18:16;;;;;;;6.15;2.17;;;15.10;99.90;;;;;;5525546;25;20368;-81
2024/04/09 02:20:44;;;;;;;9.52;2.47;;;15.10;99.90;;;;;;5523724;26;19994;-80
2024/04/09 02:23:10;;;;;;;6.45;2.10;;;15.10;99.90;;;;;;5524979;25;20077;-80
2024/04/09 02:25:35;;;;;;;7.75;2.20;;;15.10;99.90;;;;;;5523988;25;19998;-81
2024/04/09 02:28:02;;;;;;;7.10;2.13;;;15.10;99.90;;;;;;5524934;26;20003;-79
2024/04/09 02:30:28;;;;;;;6.18;2.35;;;15.10;99.90;;;;;;5522362;26;20005;-81
2024/04/09 02:32:54;;;;;;;5.68;2.05;;;15.10;99.90;;;;;;5524275;25;20399;-82
2024/04/09 02:35:19;;;;;;;11.55;2.53;;;15.10;99.90;;;;;;5523848;26;20005;-81
2024/04/09 02:37:47;;;;;;;6.68;2.38;;;15.10;99.90;;;;;;5522614;25;20002;-81
2024/04/09 02:40:15;;;;;;;5.07;2.28;;;15.10;99.90;;;;;;5523356;25;19997;-81
2024/04/09 02:42:45;;;;;;;4.18;1.90;;;15.10;99.90;;;;;;5522754;25;20001;-81
2024/04/09 02:45:11;;;;;;;6.22;2.28;;;15.10;99.90;;;;;;5523866;25;20316;-81
2024/04/09 02:47:38;;;;;;;4.40;2.03;;;15.10;99.90;;;;;;5524315;25;20004;-81
2024/04/09 02:50:03;;;;;;;7.90;2.40;;;15.00;99.90;;;;;;5523257;26;19989;-81
2024/04/09 02:52:29;;;;;;;6.88;2.38;;;15.10;99.90;;;;;;5524185;25;20004;-81
2024/04/09 02:54:55;;;;;;;5.78;2.15;;;15.00;99.90;;;;;;5523705;25;19994;-81
2024/04/09 02:57:20;;;;;;;4.30;1.98;;;15.00;99.90;;;;;;5524042;26;19993;-80
2024/04/09 02:59:46;;;;;;;10.48;2.38;;;15.00;99.90;;;;;;5522981;25;20004;-80
2024/04/09 03:02:12;;;;;;;5.05;2.05;;;15.00;99.90;;;;;;5523840;26;20004;-80
2024/04/09 03:04:38;;;;;;;7.30;2.20;;;15.00;99.90;;;;;;5523704;25;20008;-80
2024/04/09 03:07:04;;;;;;;7.88;1.90;;;15.00;99.90;;;;;;5523438;25;20065;-80
2024/04/09 03:09:31;;;;;;;4.10;1.75;;;15.00;99.90;;;;;;5523472;26;20005;-83
2024/04/09 03:11:57;;;;;;;3.85;1.70;;;15.00;99.90;;;;;;5523433;25;19997;-80
2024/04/09 03:14:29;;;;;;;5.43;1.80;;;15.00;99.90;;;;;;5522804;25;20338;-79
2024/04/09 03:16:54;;;;;;;9.15;2.08;;;15.00;99.90;;;;;;5524187;25;20008;-80
2024/04/09 03:19:20;;;;;;;5.00;1.83;;;15.00;99.90;;;;;;5522578;25;19997;-80
2024/04/09 03:21:46;;;;;;;5.97;2.00;;;15.00;99.90;;;;;;5524437;26;20343;-80
2024/04/09 03:24:11;;;;;;;5.30;1.95;;;14.90;99.90;;;;;;5524515;25;20004;-81
2024/04/09 03:26:37;;;;;;;7.00;1.70;;;14.90;99.90;;;;;;5525817;26;20007;-80
2024/04/09 03:29:03;;;;;;;5.45;2.25;;;15.00;99.90;;;;;;5527018;25;20327;-79
2024/04/09 03:31:29;;;;;;;2.55;1.70;;;14.90;99.90;;;;;;5527445;26;19994;-81
2024/04/09 03:33:55;;;;;;;4.53;1.58;;;14.90;99.90;;;;;;5527133;25;19998;-81
2024/04/09 03:36:21;;;;;;;6.15;2.40;;;14.90;99.90;;;;;;5526709;25;19993;-80
2024/04/09 03:38:47;;;;;;;7.28;2.03;;;14.90;99.90;;;;;;5527103;25;20351;-81
2024/04/09 03:41:13;;;;;;;5.80;3.10;;;14.90;99.90;;;;;;5524397;26;20009;-81
2024/04/09 03:43:39;;;;;;;7.35;2.90;;;14.90;99.90;;;;;;5525302;26;20028;-80
2024/04/09 03:46:13;;;;;;;8.45;3.28;;;14.90;99.90;;;;;;5526218;26;20011;-81
2024/04/09 03:48:46;;;;;;;8.13;3.28;;;14.90;99.90;;;;;;5527263;25;20518;-80
2024/04/09 03:51:14;;;;;;;7.80;4.25;;;14.90;99.90;;;;;;5527133;25;20004;-80
2024/04/09 03:53:40;;;;;;;9.65;4.45;;;14.90;99.90;;;;;;5526594;25;19993;-81
2024/04/09 03:56:07;;;;;;;7.65;4.28;;;14.90;99.90;;;;;;5526292;25;20008;-80
2024/04/09 03:58:38;;;;;;;9.38;4.82;;;14.90;99.90;;;;;;5526511;25;20001;-82
2024/04/09 04:01:05;;;;;;;9.13;4.60;;;14.90;99.90;;;;;;5524414;26;19997;-80
2024/04/09 04:03:32;;;;;;;8.27;4.60;;;14.90;99.90;;;;;;5525126;26;20013;-79
2024/04/09 04:05:59;;;;;;;10.05;5.75;;;14.90;99.90;;;;;;5526046;25;20363;-80
2024/04/09 04:08:36;;;;;;;9.73;5.40;;;14.80;99.90;;;;;;5524970;25;19997;-80
2024/04/09 04:11:03;;;;;;;10.52;5.13;;;14.80;99.90;;;;;;5525581;25;20069;-80
2024/04/09 04:13:30;;;;;;;10.18;6.00;;;14.70;99.90;;;;;;5526858;25;19998;-80
2024/04/09 04:16:22;;;;;;;10.18;5.60;;;14.70;99.90;;;;;;5525688;25;20454;-79
2024/04/09 04:18:49;;;;;;;11.32;6.97;;;14.70;99.90;;;;;;5484516;25;20035;-81
2024/04/09 04:21:20;;;;;;;13.13;7.07;;;14.70;99.90;;;;;;5525417;25;20319;-79
2024/04/09 04:23:48;;;;;;;11.88;7.18;;;14.70;99.90;;;;;;5526903;25;20519;-80
2024/04/09 04:26:17;;;;;;;10.10;7.30;;;14.70;99.90;;;;;;5523696;26;19995;-80
2024/04/09 04:28:43;;;;;;;14.82;7.32;;;14.70;99.90;;;;;;5527452;25;20001;-80
2024/04/09 04:31:14;;;;;;;12.15;7.85;;;14.70;99.90;;;;;;5525181;25;20009;-80
2024/04/09 04:33:41;;;;;;;11.85;9.45;;;14.70;99.90;;;;;;5527088;25;20005;-80
2024/04/09 04:36:07;;;;;;;16.00;9.80;;;14.70;99.90;;;;;;5524752;25;20618;-79
2024/04/09 04:38:33;;;;;;;12.35;9.02;;;14.70;99.90;;;;;;5526912;25;19997;-79
2024/04/09 04:41:00;;;;;;;14.15;9.70;;;14.70;99.90;;;;;;5525499;25;20041;-79
2024/04/09 04:43:26;;;;;;;14.82;9.38;;;14.70;99.90;;;;;;5526325;25;20457;-79
2024/04/09 04:45:51;;;;;;;14.68;11.15;;;14.70;99.90;;;;;;5525123;25;19993;-79
2024/04/09 04:48:21;;;;;;;15.73;10.00;;;14.70;99.90;;;;;;5526656;26;19994;-79
2024/04/09 04:50:47;;;;;;;11.40;8.75;;;14.70;99.90;;;;;;5525191;25;19998;-80
2024/04/09 04:53:13;;;;;;;12.82;8.45;;;14.70;99.90;;;;;;5526394;25;19997;-81
2024/04/09 04:55:39;;;;;;;9.38;7.50;;;14.60;99.90;;;;;;5525405;25;20001;-81
2024/04/09 04:58:05;;;;;;;9.93;7.10;;;14.60;99.90;;;;;;5526600;26;20008;-81
2024/04/09 05:00:31;;;;;;;12.48;7.05;;;14.60;99.90;;;;;;5524921;25;20443;-79
2024/04/09 05:03:06;;;;;;;10.18;7.57;;;14.60;99.90;;;;;;5526237;25;20008;-79
2024/04/09 05:05:32;;;;;;;12.98;7.38;;;14.60;99.90;;;;;;5525596;26;19998;-80
2024/04/09 05:07:58;;;;;;;11.85;7.80;;;14.50;99.90;;;;;;5525650;25;19993;-80
2024/04/09 05:10:24;;;;;;;12.13;7.80;;;14.60;99.90;;;;;;5524081;26;20012;-80
2024/04/09 05:12:51;;;;;;;13.52;8.32;;;14.50;99.90;;;;;;5525874;25;20009;-79
2024/04/09 05:15:18;;;;;;;10.60;7.18;;;14.50;99.90;;;;;;5525897;25;20005;-79
2024/04/09 05:17:45;;;;;;;10.93;7.38;;;14.50;99.90;;;;;;5525621;25;20001;-80
2024/04/09 05:20:11;;;;;;;11.23;8.25;;;14.50;99.90;;;;;;5524895;25;20062;-80
2024/04/09 05:22:38;;;;;;;11.50;8.80;;;14.50;99.90;;;;;;5525051;25;20005;-80
2024/04/09 05:25:05;;;;;;;13.23;10.48;;;14.50;99.90;;;;;;5524775;26;19997;-81
2024/04/09 05:27:31;;;;;;;15.95;11.07;;;14.50;99.90;;;;;;5525497;25;20073;-80
2024/04/09 05:29:57;;;;;;;13.85;10.85;;;14.50;99.90;;;;;;5525503;25;20009;-81
2024/04/09 05:32:23;;;;;;;14.10;9.93;;;14.50;99.90;;;;;;5525458;25;19993;-80
2024/04/09 05:34:49;;;;;;;11.52;9.80;;;14.50;99.90;;;;;;5524665;25;19997;-80
2024/04/09 05:37:15;;;;;;;13.88;9.38;;;14.40;99.90;;;;;;5525011;26;20069;-80
2024/04/09 05:39:42;;;;;;;10.65;8.05;;;14.40;99.90;;;;;;5525679;25;19993;-80
2024/04/09 05:42:09;;;;;;;11.20;8.38;;;14.40;99.90;;;;;;5525246;25;20336;-80
2024/04/09 05:44:35;;;;;;;11.48;7.60;;;14.40;99.90;;;;;;5525334;25;20050;-81
2024/04/09 05:47:01;;;;;;;7.78;5.68;;;14.40;99.90;;;;;;5523265;25;20438;-81
2024/04/09 05:49:29;;;;;;;10.82;5.80;;;14.30;99.90;;;;;;5525389;26;20001;-81
2024/04/09 05:51:55;;;;;;;8.18;5.10;;;14.30;99.90;;;;;;5523706;26;20026;-80
2024/04/09 05:54:20;;;;;;;7.32;4.28;;;14.30;99.90;;;;;;5524761;25;20477;-80
2024/04/09 05:56:46;;;;;;;9.50;4.45;;;14.20;99.90;;;;;;5524857;25;19990;-80
2024/04/09 05:59:12;;;;;;;6.55;3.88;;;14.20;99.90;;;;;;5524617;26;20474;-80
2024/04/09 06:01:38;;;;;;;6.65;4.05;;;14.20;99.90;;;;;;5525022;25;20081;-80
2024/04/09 06:04:04;;;;;;;8.88;4.20;;;14.20;99.90;;;;;;5525041;25;20003;-79
2024/04/09 06:06:30;;;;;;;6.43;3.42;;;14.10;99.90;;;;;;5523034;25;20075;-81
2024/04/09 06:08:56;;;;;;;7.57;4.07;;;14.10;99.90;;;;;;5525179;26;20005;-80
2024/04/09 06:11:21;;;;;;;6.65;3.92;;;14.10;99.90;;;;;;5524917;26;20006;-80
2024/04/09 06:13:47;;;;;;;6.03;3.40;;;14.10;99.90;;;;;;5524819;25;20013;-80
2024/04/09 06:16:13;;;;;;;6.43;3.55;;;14.10;99.90;;;;;;5524155;25;20366;-80
2024/04/09 06:18:39;;;;;;;7.20;3.70;;;14.00;99.90;;;;;;5524765;25;20002;-80
2024/04/09 06:21:04;;;;;;;5.85;3.70;;;14.00;99.90;;;;;;5522304;26;20008;-81
2024/04/09 06:23:31;;;;;;;4.93;3.25;;;14.00;99.90;;;;;;5524592;26;19993;-80
2024/04/09 06:25:58;;;;;;;5.05;3.30;;;14.00;99.90;;;;;;5523809;25;20462;-80
2024/04/09 06:28:23;;;;;;;7.57;3.30;;;14.00;99.90;;;;;;5524373;25;20012;-80
2024/04/09 06:30:49;;;;;;;4.25;2.63;;;14.00;99.90;;;;;;5524266;25;20439;-81
2024/04/09 06:33:15;;;;;;;4.05;2.20;;;14.00;99.90;;;;;;5524295;25;20447;-80
2024/04/09 06:35:40;;;;;;;5.30;2.30;;;14.00;99.90;;;;;;5523618;26;20342;-80
2024/04/09 06:38:09;;;;;;;4.85;1.60;;;14.00;99.90;;;;;;5523223;26;20002;-79
2024/04/09 06:40:36;;;;;;;4.78;1.88;;;14.00;99.90;;;;;;5523644;25;20518;-80
2024/04/09 06:43:02;;;;;;;4.97;1.80;;;13.90;99.90;;;;;;5525036;25;20005;-79
2024/04/09 06:45:28;;;;;;;7.93;1.83;;;13.90;99.90;;;;;;5521375;26;20008;-79
2024/04/09 06:47:54;;;;;;;4.10;1.60;;;13.90;99.90;;;;;;5524644;25;19997;-80
2024/04/09 06:50:20;;;;;;;2.70;1.70;;;13.90;99.90;;;;;;5523579;25;20008;-81
2024/04/09 06:52:45;;;;;;;3.97;1.58;;;13.90;99.90;;;;;;5524581;25;19993;-80
2024/04/09 06:55:11;;;;;;;1.80;1.13;;;13.90;99.90;;;;;;5523401;26;20007;-79
2024/04/09 06:57:38;;;;;;;3.35;1.23;;;13.80;99.90;;;;;;5525312;26;19993;-80
2024/04/09 07:00:06;;;;;;;3.53;1.30;;;13.80;99.90;;;;;;5526315;25;19993;-80
2024/04/09 07:02:33;;;;;;;2.17;1.20;;;13.70;99.90;;;;;;5528032;25;20005;-80
2024/04/09 07:04:59;;;;;;;5.90;1.15;;;13.60;99.90;;;;;;5526919;25;20075;-80
2024/04/09 07:07:24;;;;;;;3.53;1.20;;;13.50;99.90;;;;;;5527830;25;19993;-80
2024/04/09 07:09:50;;;;;;;6.95;1.50;;;13.50;99.90;;;;;;5525866;25;20061;-79
2024/04/09 07:12:16;;;;;;;5.65;1.20;;;13.40;99.90;;;;;;5526942;26;20074;-79
2024/04/09 07:14:42;;;;;;;3.10;1.20;;;13.30;99.90;;;;;;5527466;25;20338;-78
2024/04/09 07:17:08;;;;;;;2.70;0.95;;;13.30;99.90;;;;;;5526884;25;20392;-80
2024/04/09 07:19:33;;;;;;;3.35;1.10;;;13.20;99.90;;;;;;5527739;25;20008;-78
2024/04/09 07:21:59;;;;;;;4.45;1.10;;;13.10;99.90;;;;;;5524862;26;19997;-80
2024/04/09 07:24:25;;;;;;;3.97;1.13;;;13.00;99.90;;;;;;5528013;25;20001;-80
2024/04/09 07:26:50;;;;;;;9.82;1.40;;;12.90;99.90;;;;;;5526598;25;19997;-79
2024/04/09 07:29:18;;;;;;;7.00;1.35;;;12.90;99.90;;;;;;5528350;25;20446;-77
2024/04/09 07:31:44;;;;;;;6.28;1.63;;;12.90;99.90;;;;;;5526644;25;20009;-78
2024/04/09 07:34:09;;;;;;;4.47;0.93;;;12.80;99.90;;;;;;5527575;25;20021;-80
2024/04/09 07:36:35;;;;;;;4.28;1.00;;;12.80;99.90;;;;;;5526664;26;20466;-78
2024/04/09 07:39:01;;;;;;;6.90;1.30;;;12.70;99.90;;;;;;5527607;26;20067;-81
2024/04/09 07:41:26;;;;;;;2.85;0.75;;;12.70;99.90;;;;;;5526319;25;20008;-79
2024/04/09 07:43:53;;;;;;;5.57;1.02;;;12.70;99.90;;;;;;5527748;26;19994;-78
2024/04/09 07:46:19;;;;;;;5.38;1.38;;;12.70;99.90;;;;;;5526086;25;19998;-80
2024/04/09 07:48:45;;;;;;;7.28;0.90;;;12.60;99.90;;;;;;5527393;25;20001;-78
2024/04/09 07:51:14;;;;;;;2.10;0.80;;;12.70;99.90;;;;;;5526133;25;19993;-78
2024/04/09 07:53:40;;;;;;;5.72;1.33;;;12.70;99.90;;;;;;5527639;26;19997;-78
2024/04/09 07:56:06;;;;;;;8.10;1.25;;;12.70;99.90;;;;;;5526345;26;19994;-76
2024/04/09 07:58:33;;;;;;;4.65;1.10;;;12.80;99.90;;;;;;5526242;25;19997;-77
2024/04/09 08:00:59;;;;;;;4.85;1.02;;;12.80;99.90;;;;;;5527065;25;20062;-78
2024/04/09 08:03:25;;;;;;;3.33;1.42;;;12.80;99.90;;;;;;5526552;25;20004;-77
2024/04/09 08:05:50;;;;;;;6.45;1.25;;;12.80;99.90;;;;;;5524403;25;20001;-77
2024/04/09 08:08:17;;;;;;;4.63;1.17;;;12.90;99.90;;;;;;5526865;26;20008;-77
2024/04/09 08:10:43;;;;;;;4.15;1.10;;;12.90;99.90;;;;;;5525278;25;20490;-77
2024/04/09 08:13:09;;;;;;;7.25;1.40;;;12.90;99.90;;;;;;5526857;25;20004;-77
2024/04/09 08:15:36;;;;;;;5.88;1.23;;;12.90;99.90;;;;;;5527208;25;20649;-77
2024/04/09 08:18:02;;;;;;;4.30;1.10;;;12.90;99.90;;;;;;5526551;25;20435;-77
2024/04/09 08:20:28;;;;;;;5.55;1.05;;;12.90;99.90;;;;;;5526754;25;19993;-77
2024/04/09 08:22:54;;;;;;;5.03;1.02;;;12.90;99.90;;;;;;5526620;25;20007;-77
2024/04/09 08:25:20;;;;;;;4.57;0.88;;;12.90;99.90;;;;;;5524631;25;20001;-77
2024/04/09 08:27:47;;;;;;;3.22;0.93;;;12.90;99.90;;;;;;5526741;25;20073;-77
2024/04/09 08:30:17;;;;;;;4.30;1.25;;;12.90;99.90;;;;;;5526474;25;19998;-78
2024/04/09 08:32:44;;;;;;;3.88;0.77;;;12.90;99.90;;;;;;5526083;25;20025;-78
2024/04/09 08:35:13;;;;;;;6.97;1.17;;;12.90;99.90;;;;;;5526797;25;20039;-77
2024/04/09 08:37:44;;;;;;;6.07;1.08;;;12.90;99.90;;;;;;5525519;25;20009;-78
2024/04/09 08:40:10;;;;;;;6.70;1.10;;;13.00;99.90;;;;;;5526555;25;20069;-78
2024/04/09 08:42:42;;;;;;;4.97;1.08;;;13.10;99.90;;;;;;5523583;26;19993;-77
2024/04/09 08:45:16;;;;;;;4.00;0.88;;;13.10;99.90;;;;;;5526706;25;19997;-77
2024/04/09 08:47:43;;;;;;;4.50;1.10;;;13.10;99.90;;;;;;5525698;25;20487;-77
2024/04/09 08:50:10;;;;;;;3.88;1.08;;;13.20;99.90;;;;;;5525900;25;20265;-79
2024/04/09 08:52:36;;;;;;;5.97;1.33;;;13.30;99.90;;;;;;5525946;25;20061;-77
2024/04/09 08:55:07;;;;;;;5.20;1.05;;;13.30;99.90;;;;;;5525671;26;20005;-78
2024/04/09 08:57:32;;;;;;;4.18;1.00;;;13.40;99.90;;;;;;5523924;26;19989;-77
2024/04/09 09:00:00;;;;;;;8.32;1.40;;;13.30;99.90;;;;;;5525338;26;20058;-77
2024/04/09 09:02:26;;;;;;;4.10;1.20;;;13.30;99.90;;;;;;5525338;25;19997;-78
2024/04/09 09:04:51;;;;;;;3.63;0.93;;;13.20;99.90;;;;;;5525708;25;20422;-78
2024/04/09 09:07:19;;;;;;;6.35;1.42;;;13.20;99.90;;;;;;5525541;25;20050;-77
2024/04/09 09:09:47;;;;;;;4.68;1.00;;;13.20;99.90;;;;;;5525841;25;20009;-77
2024/04/09 09:12:13;;;;;;;5.95;1.38;;;13.20;99.90;;;;;;5525689;25;20454;-77
2024/04/09 09:14:55;;;;;;;4.47;0.95;;;13.20;99.90;;;;;;5525852;25;20001;-77
2024/04/09 09:17:21;;;;;;;2.88;1.00;;;13.20;99.90;;;;;;5525629;25;20009;-76
2024/04/09 09:19:59;;;;;;;4.90;1.10;;;13.30;99.90;;;;;;5523512;25;20032;-77
2024/04/09 09:22:29;;;;;;;5.90;1.27;;;13.20;99.90;;;;;;5524094;25;19997;-76
2024/04/09 09:24:59;;;;;;;6.03;1.00;;;13.20;99.90;;;;;;5525529;25;20397;-78
2024/04/09 09:27:29;;;;;;;6.20;0.77;;;13.20;99.90;;;;;;5525124;25;20073;-78
2024/04/09 09:29:55;;;;;;;2.13;0.80;;;13.20;99.90;;;;;;5525505;25;20003;-77
2024/04/09 09:32:23;;;;;;;5.93;1.48;;;13.30;99.90;;;;;;5524888;25;20069;-78
2024/04/09 09:34:50;;;;;;;5.60;0.80;;;13.30;99.90;;;;;;5525250;25;20471;-76
2024/04/09 09:37:16;;;;;;;4.78;1.08;;;13.30;99.90;;;;;;5525585;25;20339;-77
2024/04/09 09:39:42;;;;;;;4.43;1.25;;;13.30;99.90;;;;;;5525307;25;20037;-77
2024/04/09 09:42:12;;;;;;;4.97;1.20;;;13.40;99.90;;;;;;5524534;25;20432;-77
2024/04/09 09:44:42;;;;;;;3.50;1.02;;;13.40;99.90;;;;;;5525310;25;20025;-77
2024/04/09 09:47:08;;;;;;;2.95;1.00;;;13.40;99.90;;;;;;5525084;25;20003;-79
2024/04/09 09:49:35;;;;;;;4.47;1.20;;;13.40;99.90;;;;;;5523343;25;20029;-78
2024/04/09 09:52:01;;;;;;;4.60;1.00;;;13.40;99.90;;;;;;5523970;25;20050;-77
2024/04/09 09:54:28;;;;;;;4.68;1.10;;;13.40;99.90;;;;;;5525153;25;20425;-77
2024/04/09 09:57:08;;;;;;;4.65;0.95;;;13.40;99.90;;;;;;5524580;25;19998;-79
2024/04/09 09:59:55;;;;;;;3.67;0.90;;;13.40;99.90;;;;;;5525555;25;20511;-77
2024/04/09 10:02:22;;;;;;;7.03;0.90;;;13.40;99.90;;;;;;5524367;25;19994;-79
2024/04/09 10:04:48;;;;;;;4.70;1.30;;;13.30;99.90;;;;;;5525146;25;20025;-78
2024/04/09 10:07:17;;;;;;;6.68;1.40;;;13.40;99.90;;;;;;5523744;26;20009;-79
2024/04/09 10:09:42;;;;;;;6.47;1.27;;;13.40;99.90;;;;;;5524726;25;20008;-78
2024/04/09 10:12:22;;;;;;;5.10;1.10;;;13.40;99.90;;;;;;5523778;26;19993;-80
2024/04/09 10:15:07;;;;;;;4.70;1.10;;;13.30;99.90;;;;;;5524996;25;20009;-82
2024/04/09 10:17:56;;;;;;;7.70;1.13;;;13.30;99.90;;;;;;5523905;25;19997;-79
2024/04/09 10:20:25;;;;;;;6.57;1.40;;;13.30;99.90;;;;;;5524619;25;20009;-79
2024/04/09 10:22:56;;;;;;;5.47;1.10;;;13.20;99.90;;;;;;5523796;25;19997;-78
2024/04/09 10:25:24;;;;;;;3.70;1.05;;;13.20;99.90;;;;;;5524663;25;20005;-78
2024/04/09 10:28:10;;;;;;;3.67;0.90;;;13.10;99.90;;;;;;5523387;26;20015;-78
2024/04/09 10:30:37;;;;;;;3.10;0.73;;;13.10;99.90;;;;;;5524282;25;20376;-80
2024/04/09 10:33:05;;;;;;;3.92;0.77;;;13.10;99.90;;;;;;5525108;25;20005;-84
2024/04/09 10:35:31;;;;;;;7.28;0.90;;;13.10;99.90;;;;;;5529076;25;20005;-78
2024/04/09 10:37:58;;;;;;;5.75;1.20;;;13.10;99.90;;;;;;5527358;25;19997;-78
2024/04/09 10:40:25;;;;;;;3.10;0.75;;;13.20;99.90;;;;;;5528205;25;19993;-77
2024/04/09 10:42:51;;;;;;;2.25;0.75;;;13.20;99.90;;;;;;5525309;26;20021;-78
2024/04/09 10:45:18;;;;;;;4.53;0.98;;;13.30;99.90;;;;;;5528195;25;20076;-78
2024/04/09 10:47:45;;;;;;;5.53;0.82;;;13.30;99.90;;;;;;5526979;25;20018;-77
2024/04/09 10:50:14;;;;;;;2.45;0.75;;;13.40;99.90;;;;;;5528712;25;19994;-79
2024/04/09 10:52:41;;;;;;;3.38;0.88;;;13.50;99.90;;;;;;5527232;25;20005;-80
2024/04/09 10:55:11;;;;;;;2.38;0.90;;;13.50;99.90;;;;;;5528484;25;20331;-79
2024/04/09 10:57:38;;;;;;;3.45;0.93;;;13.50;99.90;;;;;;5527487;25;20005;-80
2024/04/09 11:00:13;;;;;;;1.45;0.68;;;13.50;99.90;;;;;;5528638;25;20004;-79
2024/04/09 11:02:41;;;;;;;7.65;0.93;;;13.50;99.90;;;;;;5527390;25;20005;-78
2024/04/09 11:05:10;;;;;;;6.47;0.90;;;13.50;99.90;;;;;;5528002;25;20005;-81
2024/04/09 11:07:38;;;;;;;3.90;0.90;;;13.50;99.90;;;;;;5527320;25;20442;-79
2024/04/09 11:10:17;;;;;;;4.90;1.23;;;13.50;99.90;;;;;;5528213;25;19993;-79
2024/04/09 11:12:53;;;;;;;2.50;1.00;;;13.60;99.90;;;;;;5527403;25;20001;-80
2024/04/09 11:15:20;;;;;;;4.55;1.52;;;13.60;99.90;;;;;;5528828;25;20007;-79
2024/04/09 11:17:46;;;;;;;2.75;0.60;;;13.50;99.90;;;;;;5527181;25;20455;-80
2024/04/09 11:20:18;;;;;;;1.75;0.73;;;13.50;99.90;;;;;;5528500;25;20069;-79
2024/04/09 11:22:49;;;;;;;4.00;0.88;;;13.50;99.90;;;;;;5526692;25;20004;-79
2024/04/09 11:25:17;;;;;;;;;;;13.60;99.90;;;;;;5526613;26;20005;-78
2024/04/09 11:27:47;;;;;;;4.10;1.05;;;13.60;99.90;;;;;;5526515;25;19931;-79
2024/04/09 11:30:33;;;;;;;4.60;0.70;;;13.60;99.90;;;;;;5527964;25;19989;-80
2024/04/09 11:33:02;;;;;;;2.65;0.68;;;13.70;99.90;;;;;;5527116;25;19993;-79
2024/04/09 11:35:29;;;;;;;3.53;1.08;;;13.70;99.90;;;;;;5525671;25;20026;-80
2024/04/09 11:37:58;;;;;;;3.83;0.80;;;13.70;99.90;;;;;;5526639;25;20517;-79
2024/04/09 11:40:28;;;;;;;3.50;0.82;;;13.70;99.90;;;;;;5527724;25;20004;-79
2024/04/09 11:42:55;;;;;;;6.57;0.77;;;13.70;99.90;;;;;;5526941;25;20040;-80
2024/04/09 11:45:27;;;;;;;4.43;0.77;;;13.80;99.90;;;;;;5526287;25;20038;-81
2024/04/09 11:47:53;;;;;;;4.68;0.90;;;13.80;99.90;;;;;;5526979;25;20016;-82
2024/04/09 11:50:19;;;;;;;3.47;0.85;;;13.80;99.90;;;;;;5527550;26;20009;-81
2024/04/09 11:52:45;;;;;;;4.38;1.08;;;13.90;99.90;;;;;;5526526;25;19993;-80
2024/04/09 11:55:11;;;;;;;5.47;0.90;;;14.00;99.90;;;;;;5527217;25;20351;-82
2024/04/09 11:57:37;;;;;;;3.53;0.90;;;14.10;99.90;;;;;;5526531;25;20004;-80
2024/04/09 12:00:22;;;;;;;3.15;0.60;;;14.10;99.90;;;;;;5527058;25;19993;-79
2024/04/09 12:02:49;;;;;;;6.05;0.70;;;14.10;99.90;;;;;;5527733;25;20021;-79
2024/04/09 12:05:15;;;;;;;4.07;1.15;;;14.20;99.90;;;;;;5527186;25;19997;-79
2024/04/09 12:07:44;;;;;;;4.28;0.90;;;14.10;99.90;;;;;;5526635;25;20008;-79
2024/04/09 12:10:10;;;;;;;2.72;0.65;;;14.20;99.90;;;;;;5527205;26;20022;-79
2024/04/09 12:12:38;;;;;;;3.53;1.00;;;14.20;99.90;;;;;;5526488;25;20548;-82
2024/04/09 12:15:04;;;;;;;1.48;0.70;;;14.20;99.90;;;;;;5526803;25;20108;-79
2024/04/09 12:17:30;;;;;;;3.10;0.82;;;14.20;99.90;;;;;;5526258;26;19997;-79
2024/04/09 12:19:56;;;;;;;5.82;1.40;;;14.20;99.90;;;;;;5526628;25;20324;-80
2024/04/09 12:22:22;;;;;;;2.83;0.88;;;14.10;99.60;;;;;;5526522;25;20005;-81
2024/04/09 12:24:48;;;;;;;2.47;0.82;;;14.10;99.60;;;;;;5527220;25;19998;-80
2024/04/09 12:27:13;;;;;;;3.20;0.75;;;14.00;99.30;;;;;;5526328;26;19993;-80
2024/04/09 12:29:39;;;;;;;2.65;0.80;;;13.90;99.20;;;;;;5526815;26;20005;-79
2024/04/09 12:32:06;;;;;;;2.28;0.60;;;13.90;99.40;;;;;;5526376;25;20008;-79
2024/04/09 12:34:33;;;;;;;3.38;0.80;;;13.90;99.70;;;;;;5526832;25;19993;-78
2024/04/09 12:37:05;;;;;;;5.53;0.93;;;14.00;99.90;;;;;;5525866;25;20336;-79
2024/04/09 12:39:31;;;;;;;5.10;1.10;;;14.00;99.50;;;;;;5526819;26;20001;-80
2024/04/09 12:42:00;;;;;;;3.85;1.08;;;14.00;99.50;;;;;;5525963;26;20073;-80
2024/04/09 12:44:26;;;;;;;4.10;1.02;;;14.10;99.60;;;;;;5527931;25;19994;-78
2024/04/09 12:46:52;;;;;;;4.35;0.80;;;14.10;99.50;;;;;;5524329;26;19998;-78